sensor_id;sensor_type;location;lat;lon;timestamp;temperature;humidity
59146;DHT22;44928;53.074;6.646;2024-03-08T00:02:14;2.80;99.90
59146;DHT22;44928;53.074;6.646;2024-03-08T00:04:40;2.80;99.90
59146;DHT22;44928;53.074;6.646;2024-03-08T00:07:06;2.80;99.90
59146;DHT22;44928;53.074;6.646;2024-03-08T00:09:32;2.80;99.90
59146;DHT22;44928;53.074;6.646;2024-03-08T00:11:58;2.80;99.90
59146;DHT22;44928;53.074;6.646;2024-03-08T00:14:24;2.80;99.90
59146;DHT22;44928;53.074;6.646;2024-03-08T00:16:51;2.80;99.90
59146;DHT22;44928;53.074;6.646;2024-03-08T00:19:19;2.80;99.90
59146;DHT22;44928;53.074;6.646;2024-03-08T00:21:45;2.80;99.90
59146;DHT22;44928;53.074;6.646;2024-03-08T00:24:11;2.80;99.90
59146;DHT22;44928;53.074;6.646;2024-03-08T00:26:37;2.80;99.90
59146;DHT22;44928;53.074;6.646;2024-03-08T00:29:03;2.80;99.90
59146;DHT22;44928;53.074;6.646;2024-03-08T00:31:29;2.70;99.90
59146;DHT22;44928;53.074;6.646;2024-03-08T00:33:57;2.70;99.90
59146;DHT22;44928;53.074;6.646;2024-03-08T00:36:23;2.70;99.90
59146;DHT22;44928;53.074;6.646;2024-03-08T00:38:50;2.70;99.90
59146;DHT22;44928;53.074;6.646;2024-03-08T00:41:16;2.70;99.90
59146;DHT22;44928;53.074;6.646;2024-03-08T00:43:42;2.70;99.90
59146;DHT22;44928;53.074;6.646;2024-03-08T00:46:08;2.70;99.90
59146;DHT22;44928;53.074;6.646;2024-03-08T00:48:33;2.60;99.90
59146;DHT22;44928;53.074;6.646;2024-03-08T00:51:00;2.60;99.90
59146;DHT22;44928;53.074;6.646;2024-03-08T00:53:27;2.60;99.90
59146;DHT22;44928;53.074;6.646;2024-03-08T00:55:53;2.50;99.90
59146;DHT22;44928;53.074;6.646;2024-03-08T00:58:20;2.50;99.90
59146;DHT22;44928;53.074;6.646;2024-03-08T01:00:46;2.50;99.90
59146;DHT22;44928;53.074;6.646;2024-03-08T01:03:12;2.50;99.90
59146;DHT22;44928;53.074;6.646;2024-03-08T01:05:38;2.40;99.90
59146;DHT22;44928;53.074;6.646;2024-03-08T01:08:04;2.50;99.90
59146;DHT22;44928;53.074;6.646;2024-03-08T01:10:30;2.40;99.90
59146;DHT22;44928;53.074;6.646;2024-03-08T01:12:56;2.40;99.90
59146;DHT22;44928;53.074;6.646;2024-03-08T01:15:23;2.40;99.90
59146;DHT22;44928;53.074;6.646;2024-03-08T01:17:49;2.30;99.90
59146;DHT22;44928;53.074;6.646;2024-03-08T01:20:15;2.30;99.90
59146;DHT22;44928;53.074;6.646;2024-03-08T01:22:41;2.30;99.90
59146;DHT22;44928;53.074;6.646;2024-03-08T01:25:07;2.30;99.90
59146;DHT22;44928;53.074;6.646;2024-03-08T01:27:34;2.30;99.90
59146;DHT22;44928;53.074;6.646;2024-03-08T01:30:03;2.30;99.90
59146;DHT22;44928;53.074;6.646;2024-03-08T01:32:29;2.30;99.90
59146;DHT22;44928;53.074;6.646;2024-03-08T01:34:55;2.20;99.90
59146;DHT22;44928;53.074;6.646;2024-03-08T01:37:20;2.20;99.90
59146;DHT22;44928;53.074;6.646;2024-03-08T01:39:46;2.20;99.90
59146;DHT22;44928;53.074;6.646;2024-03-08T01:42:12;2.20;99.90
59146;DHT22;44928;53.074;6.646;2024-03-08T01:44:40;2.20;99.90
59146;DHT22;44928;53.074;6.646;2024-03-08T01:47:07;2.20;99.90
59146;DHT22;44928;53.074;6.646;2024-03-08T01:49:32;2.20;99.90
59146;DHT22;44928;53.074;6.646;2024-03-08T01:51:59;2.20;99.90
59146;DHT22;44928;53.074;6.646;2024-03-08T01:54:25;2.20;99.90
59146;DHT22;44928;53.074;6.646;2024-03-08T01:56:52;2.20;99.90
59146;DHT22;44928;53.074;6.646;2024-03-08T01:59:19;2.10;99.90
59146;DHT22;44928;53.074;6.646;2024-03-08T02:01:45;2.10;99.90
59146;DHT22;44928;53.074;6.646;2024-03-08T02:04:11;2.10;99.90
59146;DHT22;44928;53.074;6.646;2024-03-08T02:06:36;2.10;99.90
59146;DHT22;44928;53.074;6.646;2024-03-08T02:09:03;2.10;99.90
59146;DHT22;44928;53.074;6.646;2024-03-08T02:11:33;2.10;99.90
59146;DHT22;44928;53.074;6.646;2024-03-08T02:13:59;2.10;99.90
59146;DHT22;44928;53.074;6.646;2024-03-08T02:16:25;2.10;99.90
59146;DHT22;44928;53.074;6.646;2024-03-08T02:18:51;2.10;99.90
59146;DHT22;44928;53.074;6.646;2024-03-08T02:21:17;2.10;99.90
59146;DHT22;44928;53.074;6.646;2024-03-08T02:23:44;2.00;99.90
59146;DHT22;44928;53.074;6.646;2024-03-08T02:26:10;2.00;99.90
59146;DHT22;44928;53.074;6.646;2024-03-08T02:28:37;2.00;99.90
59146;DHT22;44928;53.074;6.646;2024-03-08T02:31:03;2.00;99.90
59146;DHT22;44928;53.074;6.646;2024-03-08T02:33:34;2.00;99.90
59146;DHT22;44928;53.074;6.646;2024-03-08T02:35:59;2.00;99.90
59146;DHT22;44928;53.074;6.646;2024-03-08T02:38:26;2.00;99.90
59146;DHT22;44928;53.074;6.646;2024-03-08T02:40:53;2.00;99.90
59146;DHT22;44928;53.074;6.646;2024-03-08T02:43:20;2.00;99.90
59146;DHT22;44928;53.074;6.646;2024-03-08T02:45:48;2.00;99.90
59146;DHT22;44928;53.074;6.646;2024-03-08T02:48:14;2.00;99.90
59146;DHT22;44928;53.074;6.646;2024-03-08T02:50:41;2.00;99.90
59146;DHT22;44928;53.074;6.646;2024-03-08T02:53:11;1.90;99.90
59146;DHT22;44928;53.074;6.646;2024-03-08T02:55:41;1.90;99.90
59146;DHT22;44928;53.074;6.646;2024-03-08T02:58:07;1.90;99.90
59146;DHT22;44928;53.074;6.646;2024-03-08T03:00:36;1.90;99.90
59146;DHT22;44928;53.074;6.646;2024-03-08T03:03:04;1.90;99.90
59146;DHT22;44928;53.074;6.646;2024-03-08T03:05:30;1.90;99.90
59146;DHT22;44928;53.074;6.646;2024-03-08T03:07:56;1.80;99.90
59146;DHT22;44928;53.074;6.646;2024-03-08T03:10:23;1.80;99.90
59146;DHT22;44928;53.074;6.646;2024-03-08T03:12:49;1.80;99.90
59146;DHT22;44928;53.074;6.646;2024-03-08T03:15:15;1.80;99.90
59146;DHT22;44928;53.074;6.646;2024-03-08T03:17:50;1.80;99.90
59146;DHT22;44928;53.074;6.646;2024-03-08T03:20:17;1.80;99.90
59146;DHT22;44928;53.074;6.646;2024-03-08T03:22:49;1.70;99.90
59146;DHT22;44928;53.074;6.646;2024-03-08T03:25:19;1.70;99.90
59146;DHT22;44928;53.074;6.646;2024-03-08T03:27:54;1.70;99.90
59146;DHT22;44928;53.074;6.646;2024-03-08T03:30:25;1.70;99.90
59146;DHT22;44928;53.074;6.646;2024-03-08T03:33:01;1.70;99.90
59146;DHT22;44928;53.074;6.646;2024-03-08T03:35:27;1.70;99.90
59146;DHT22;44928;53.074;6.646;2024-03-08T03:37:54;1.70;99.90
59146;DHT22;44928;53.074;6.646;2024-03-08T03:40:39;1.60;99.90
59146;DHT22;44928;53.074;6.646;2024-03-08T03:43:05;1.60;99.90
59146;DHT22;44928;53.074;6.646;2024-03-08T03:45:31;1.60;99.90
59146;DHT22;44928;53.074;6.646;2024-03-08T03:48:07;1.60;99.90
59146;DHT22;44928;53.074;6.646;2024-03-08T03:50:34;1.60;99.90
59146;DHT22;44928;53.074;6.646;2024-03-08T03:53:01;1.50;99.90
59146;DHT22;44928;53.074;6.646;2024-03-08T03:55:28;1.50;99.90
59146;DHT22;44928;53.074;6.646;2024-03-08T03:57:54;1.50;99.90
59146;DHT22;44928;53.074;6.646;2024-03-08T04:00:20;1.50;99.90
59146;DHT22;44928;53.074;6.646;2024-03-08T04:02:46;1.50;99.90
59146;DHT22;44928;53.074;6.646;2024-03-08T04:05:12;1.50;99.90
59146;DHT22;44928;53.074;6.646;2024-03-08T04:07:38;1.50;99.90
59146;DHT22;44928;53.074;6.646;2024-03-08T04:10:06;1.40;99.90
59146;DHT22;44928;53.074;6.646;2024-03-08T04:12:36;1.40;99.90
59146;DHT22;44928;53.074;6.646;2024-03-08T04:15:01;1.40;99.90
59146;DHT22;44928;53.074;6.646;2024-03-08T04:17:27;1.40;99.90
59146;DHT22;44928;53.074;6.646;2024-03-08T04:19:53;1.40;99.90
59146;DHT22;44928;53.074;6.646;2024-03-08T04:22:19;1.40;99.90
59146;DHT22;44928;53.074;6.646;2024-03-08T04:24:45;1.40;99.90
59146;DHT22;44928;53.074;6.646;2024-03-08T04:27:12;1.30;99.90
59146;DHT22;44928;53.074;6.646;2024-03-08T04:29:38;1.30;99.90
59146;DHT22;44928;53.074;6.646;2024-03-08T04:32:05;1.30;99.90
59146;DHT22;44928;53.074;6.646;2024-03-08T04:34:32;1.20;99.90
59146;DHT22;44928;53.074;6.646;2024-03-08T04:37:00;1.30;99.90
59146;DHT22;44928;53.074;6.646;2024-03-08T04:39:25;1.20;99.90
59146;DHT22;44928;53.074;6.646;2024-03-08T04:41:58;1.20;99.90
59146;DHT22;44928;53.074;6.646;2024-03-08T04:44:24;1.20;99.90
59146;DHT22;44928;53.074;6.646;2024-03-08T04:46:50;1.20;99.90
59146;DHT22;44928;53.074;6.646;2024-03-08T04:49:16;1.20;99.90
59146;DHT22;44928;53.074;6.646;2024-03-08T04:51:42;1.20;99.90
59146;DHT22;44928;53.074;6.646;2024-03-08T04:54:08;1.20;99.90
59146;DHT22;44928;53.074;6.646;2024-03-08T04:56:34;1.10;99.90
59146;DHT22;44928;53.074;6.646;2024-03-08T04:58:59;1.10;99.90
59146;DHT22;44928;53.074;6.646;2024-03-08T05:01:25;1.10;99.90
59146;DHT22;44928;53.074;6.646;2024-03-08T05:03:51;1.10;99.90
59146;DHT22;44928;53.074;6.646;2024-03-08T05:06:21;1.10;99.90
59146;DHT22;44928;53.074;6.646;2024-03-08T05:08:46;1.10;99.90
59146;DHT22;44928;53.074;6.646;2024-03-08T05:11:12;1.10;99.90
59146;DHT22;44928;53.074;6.646;2024-03-08T05:13:40;1.10;99.90
59146;DHT22;44928;53.074;6.646;2024-03-08T05:16:06;1.10;99.90
59146;DHT22;44928;53.074;6.646;2024-03-08T05:18:36;1.10;99.90
59146;DHT22;44928;53.074;6.646;2024-03-08T05:21:02;1.10;99.90
59146;DHT22;44928;53.074;6.646;2024-03-08T05:23:30;1.10;99.90
59146;DHT22;44928;53.074;6.646;2024-03-08T05:25:56;1.00;99.90
59146;DHT22;44928;53.074;6.646;2024-03-08T05:28:21;1.10;99.90
59146;DHT22;44928;53.074;6.646;2024-03-08T05:30:47;1.00;99.90
59146;DHT22;44928;53.074;6.646;2024-03-08T05:33:13;1.00;99.90
59146;DHT22;44928;53.074;6.646;2024-03-08T05:35:40;1.00;99.90
59146;DHT22;44928;53.074;6.646;2024-03-08T05:38:06;0.90;99.90
59146;DHT22;44928;53.074;6.646;2024-03-08T05:40:32;0.70;99.90
59146;DHT22;44928;53.074;6.646;2024-03-08T05:42:59;0.60;99.90
59146;DHT22;44928;53.074;6.646;2024-03-08T05:45:25;0.50;99.90
59146;DHT22;44928;53.074;6.646;2024-03-08T05:47:54;0.40;99.90
59146;DHT22;44928;53.074;6.646;2024-03-08T05:50:20;0.30;99.90
59146;DHT22;44928;53.074;6.646;2024-03-08T05:52:46;0.20;99.90
59146;DHT22;44928;53.074;6.646;2024-03-08T05:55:13;0.20;99.90
59146;DHT22;44928;53.074;6.646;2024-03-08T05:57:41;0.10;99.90
59146;DHT22;44928;53.074;6.646;2024-03-08T06:00:08;0.10;99.90
59146;DHT22;44928;53.074;6.646;2024-03-08T06:02:37;0.00;99.90
59146;DHT22;44928;53.074;6.646;2024-03-08T06:05:08;0.00;99.90
59146;DHT22;44928;53.074;6.646;2024-03-08T06:07:34;0.00;99.90
59146;DHT22;44928;53.074;6.646;2024-03-08T06:10:00;-0.10;99.90
59146;DHT22;44928;53.074;6.646;2024-03-08T06:12:26;0.00;99.90
59146;DHT22;44928;53.074;6.646;2024-03-08T06:14:54;-0.10;99.90
59146;DHT22;44928;53.074;6.646;2024-03-08T06:17:20;-0.10;99.90
59146;DHT22;44928;53.074;6.646;2024-03-08T06:19:51;-0.10;99.90
59146;DHT22;44928;53.074;6.646;2024-03-08T06:22:17;0.00;99.90
59146;DHT22;44928;53.074;6.646;2024-03-08T06:24:45;0.00;99.90
59146;DHT22;44928;53.074;6.646;2024-03-08T06:27:11;0.00;99.90
59146;DHT22;44928;53.074;6.646;2024-03-08T06:29:36;0.00;99.90
59146;DHT22;44928;53.074;6.646;2024-03-08T06:32:02;0.00;99.90
59146;DHT22;44928;53.074;6.646;2024-03-08T06:34:28;0.00;99.90
59146;DHT22;44928;53.074;6.646;2024-03-08T06:36:54;0.00;99.90
59146;DHT22;44928;53.074;6.646;2024-03-08T06:39:26;0.10;99.90
59146;DHT22;44928;53.074;6.646;2024-03-08T06:41:52;0.10;99.90
59146;DHT22;44928;53.074;6.646;2024-03-08T06:44:18;0.20;99.90
59146;DHT22;44928;53.074;6.646;2024-03-08T06:46:47;0.20;99.90
59146;DHT22;44928;53.074;6.646;2024-03-08T06:49:14;0.20;99.90
59146;DHT22;44928;53.074;6.646;2024-03-08T06:51:41;0.30;99.90
59146;DHT22;44928;53.074;6.646;2024-03-08T06:54:07;0.40;99.90
59146;DHT22;44928;53.074;6.646;2024-03-08T06:56:37;0.40;99.90
59146;DHT22;44928;53.074;6.646;2024-03-08T06:59:03;0.40;99.90
59146;DHT22;44928;53.074;6.646;2024-03-08T07:01:29;0.50;99.90
59146;DHT22;44928;53.074;6.646;2024-03-08T07:03:58;0.50;99.90
59146;DHT22;44928;53.074;6.646;2024-03-08T07:06:23;0.50;99.90
59146;DHT22;44928;53.074;6.646;2024-03-08T07:08:49;0.50;99.90
59146;DHT22;44928;53.074;6.646;2024-03-08T07:11:15;0.60;99.90
59146;DHT22;44928;53.074;6.646;2024-03-08T07:13:45;0.60;99.90
59146;DHT22;44928;53.074;6.646;2024-03-08T07:16:11;0.70;99.90
59146;DHT22;44928;53.074;6.646;2024-03-08T07:18:37;0.70;99.90
59146;DHT22;44928;53.074;6.646;2024-03-08T07:21:09;0.80;99.90
59146;DHT22;44928;53.074;6.646;2024-03-08T07:23:36;0.80;99.90
59146;DHT22;44928;53.074;6.646;2024-03-08T07:26:35;0.80;99.90
59146;DHT22;44928;53.074;6.646;2024-03-08T07:29:01;0.90;99.90
59146;DHT22;44928;53.074;6.646;2024-03-08T07:31:26;1.00;99.90
59146;DHT22;44928;53.074;6.646;2024-03-08T07:34:04;1.00;99.90
59146;DHT22;44928;53.074;6.646;2024-03-08T07:36:33;1.10;99.90
59146;DHT22;44928;53.074;6.646;2024-03-08T07:39:00;1.10;99.90
59146;DHT22;44928;53.074;6.646;2024-03-08T07:41:26;1.10;99.90
59146;DHT22;44928;53.074;6.646;2024-03-08T07:43:53;1.20;99.90
59146;DHT22;44928;53.074;6.646;2024-03-08T07:46:19;1.20;99.90
59146;DHT22;44928;53.074;6.646;2024-03-08T07:48:44;1.30;99.90
59146;DHT22;44928;53.074;6.646;2024-03-08T07:51:11;1.30;99.90
59146;DHT22;44928;53.074;6.646;2024-03-08T07:53:38;1.40;99.90
59146;DHT22;44928;53.074;6.646;2024-03-08T07:56:04;1.50;99.90
59146;DHT22;44928;53.074;6.646;2024-03-08T07:58:30;1.50;99.90
59146;DHT22;44928;53.074;6.646;2024-03-08T08:00:56;1.60;99.90
59146;DHT22;44928;53.074;6.646;2024-03-08T08:03:22;1.60;99.90
59146;DHT22;44928;53.074;6.646;2024-03-08T08:05:48;1.70;99.90
59146;DHT22;44928;53.074;6.646;2024-03-08T08:08:14;1.70;99.90
59146;DHT22;44928;53.074;6.646;2024-03-08T08:10:40;1.80;99.90
59146;DHT22;44928;53.074;6.646;2024-03-08T08:13:06;1.90;99.90
59146;DHT22;44928;53.074;6.646;2024-03-08T08:15:32;1.90;99.90
59146;DHT22;44928;53.074;6.646;2024-03-08T08:18:00;2.00;99.90
59146;DHT22;44928;53.074;6.646;2024-03-08T08:20:26;2.10;99.90
59146;DHT22;44928;53.074;6.646;2024-03-08T08:22:53;2.10;99.90
59146;DHT22;44928;53.074;6.646;2024-03-08T08:25:20;2.20;99.90
59146;DHT22;44928;53.074;6.646;2024-03-08T08:27:48;2.30;99.90
59146;DHT22;44928;53.074;6.646;2024-03-08T08:30:14;2.40;99.90
59146;DHT22;44928;53.074;6.646;2024-03-08T08:32:40;2.50;99.90
59146;DHT22;44928;53.074;6.646;2024-03-08T08:35:07;2.60;99.90
59146;DHT22;44928;53.074;6.646;2024-03-08T08:37:41;2.60;99.90
59146;DHT22;44928;53.074;6.646;2024-03-08T08:40:07;2.70;99.90
59146;DHT22;44928;53.074;6.646;2024-03-08T08:42:40;2.80;99.90
59146;DHT22;44928;53.074;6.646;2024-03-08T08:45:07;2.90;99.90
59146;DHT22;44928;53.074;6.646;2024-03-08T08:47:36;3.00;99.90
59146;DHT22;44928;53.074;6.646;2024-03-08T08:50:03;3.00;99.90
59146;DHT22;44928;53.074;6.646;2024-03-08T08:52:32;3.10;99.90
59146;DHT22;44928;53.074;6.646;2024-03-08T08:54:58;3.10;99.90
59146;DHT22;44928;53.074;6.646;2024-03-08T08:57:24;3.10;99.90
59146;DHT22;44928;53.074;6.646;2024-03-08T08:59:50;3.20;99.90
59146;DHT22;44928;53.074;6.646;2024-03-08T09:02:15;3.20;99.90
59146;DHT22;44928;53.074;6.646;2024-03-08T09:04:42;3.30;99.90
59146;DHT22;44928;53.074;6.646;2024-03-08T09:07:09;3.30;99.90
59146;DHT22;44928;53.074;6.646;2024-03-08T09:09:35;3.30;99.90
59146;DHT22;44928;53.074;6.646;2024-03-08T09:12:01;3.30;99.90
59146;DHT22;44928;53.074;6.646;2024-03-08T09:14:27;3.40;99.90
59146;DHT22;44928;53.074;6.646;2024-03-08T09:16:53;3.50;99.90
59146;DHT22;44928;53.074;6.646;2024-03-08T09:19:19;3.50;99.90
59146;DHT22;44928;53.074;6.646;2024-03-08T09:21:51;3.50;99.90
59146;DHT22;44928;53.074;6.646;2024-03-08T09:24:17;3.60;99.90
59146;DHT22;44928;53.074;6.646;2024-03-08T09:26:43;3.60;99.90
59146;DHT22;44928;53.074;6.646;2024-03-08T09:29:09;3.70;99.90
59146;DHT22;44928;53.074;6.646;2024-03-08T09:31:36;3.70;99.90
59146;DHT22;44928;53.074;6.646;2024-03-08T09:34:03;3.80;99.90
59146;DHT22;44928;53.074;6.646;2024-03-08T09:36:29;3.80;99.90
59146;DHT22;44928;53.074;6.646;2024-03-08T09:38:58;3.90;99.90
59146;DHT22;44928;53.074;6.646;2024-03-08T09:41:23;3.90;99.90
59146;DHT22;44928;53.074;6.646;2024-03-08T09:43:50;4.00;99.90
59146;DHT22;44928;53.074;6.646;2024-03-08T09:46:16;4.00;99.90
59146;DHT22;44928;53.074;6.646;2024-03-08T09:48:45;4.10;99.90
59146;DHT22;44928;53.074;6.646;2024-03-08T09:51:14;4.10;99.90
59146;DHT22;44928;53.074;6.646;2024-03-08T09:53:41;4.20;99.90
59146;DHT22;44928;53.074;6.646;2024-03-08T09:56:08;4.20;99.90
59146;DHT22;44928;53.074;6.646;2024-03-08T09:58:34;4.30;99.90
59146;DHT22;44928;53.074;6.646;2024-03-08T10:01:00;4.40;99.90
59146;DHT22;44928;53.074;6.646;2024-03-08T10:03:30;4.50;99.90
59146;DHT22;44928;53.074;6.646;2024-03-08T10:05:58;4.60;99.90
59146;DHT22;44928;53.074;6.646;2024-03-08T10:08:30;4.70;99.90
59146;DHT22;44928;53.074;6.646;2024-03-08T10:10:56;4.70;99.90
59146;DHT22;44928;53.074;6.646;2024-03-08T10:13:26;4.80;99.90
59146;DHT22;44928;53.074;6.646;2024-03-08T10:15:55;4.80;99.90
59146;DHT22;44928;53.074;6.646;2024-03-08T10:18:21;4.80;99.90
59146;DHT22;44928;53.074;6.646;2024-03-08T10:21:02;4.90;99.90
59146;DHT22;44928;53.074;6.646;2024-03-08T10:23:30;5.00;99.90
59146;DHT22;44928;53.074;6.646;2024-03-08T10:25:56;5.10;99.90
59146;DHT22;44928;53.074;6.646;2024-03-08T10:28:24;5.20;99.90
59146;DHT22;44928;53.074;6.646;2024-03-08T10:30:50;5.30;99.90
59146;DHT22;44928;53.074;6.646;2024-03-08T10:33:16;5.40;99.90
59146;DHT22;44928;53.074;6.646;2024-03-08T10:35:42;5.50;99.90
59146;DHT22;44928;53.074;6.646;2024-03-08T10:38:10;5.60;99.90
59146;DHT22;44928;53.074;6.646;2024-03-08T10:40:39;5.60;99.90
59146;DHT22;44928;53.074;6.646;2024-03-08T10:43:06;5.70;99.90
59146;DHT22;44928;53.074;6.646;2024-03-08T10:45:39;5.80;99.90
59146;DHT22;44928;53.074;6.646;2024-03-08T10:48:40;5.90;99.90
59146;DHT22;44928;53.074;6.646;2024-03-08T10:51:09;6.00;99.90
59146;DHT22;44928;53.074;6.646;2024-03-08T10:53:37;6.10;99.90
59146;DHT22;44928;53.074;6.646;2024-03-08T10:56:07;6.20;99.90
59146;DHT22;44928;53.074;6.646;2024-03-08T10:58:36;6.30;99.90
59146;DHT22;44928;53.074;6.646;2024-03-08T11:01:02;6.40;99.90
59146;DHT22;44928;53.074;6.646;2024-03-08T11:06:19;6.70;99.90
59146;DHT22;44928;53.074;6.646;2024-03-08T11:08:48;6.70;99.90
59146;DHT22;44928;53.074;6.646;2024-03-08T11:11:25;6.90;99.90
59146;DHT22;44928;53.074;6.646;2024-03-08T11:13:58;7.00;99.90
59146;DHT22;44928;53.074;6.646;2024-03-08T11:19:00;7.10;99.90
59146;DHT22;44928;53.074;6.646;2024-03-08T11:21:33;7.20;99.90
59146;DHT22;44928;53.074;6.646;2024-03-08T11:24:02;7.20;99.90
59146;DHT22;44928;53.074;6.646;2024-03-08T11:26:29;7.30;99.90
59146;DHT22;44928;53.074;6.646;2024-03-08T11:32:12;7.40;99.90
59146;DHT22;44928;53.074;6.646;2024-03-08T11:34:40;7.50;99.90
59146;DHT22;44928;53.074;6.646;2024-03-08T11:37:17;7.50;99.90
59146;DHT22;44928;53.074;6.646;2024-03-08T11:42:14;7.70;99.90
59146;DHT22;44928;53.074;6.646;2024-03-08T11:44:43;7.80;99.90
59146;DHT22;44928;53.074;6.646;2024-03-08T11:47:13;8.00;99.90
59146;DHT22;44928;53.074;6.646;2024-03-08T11:49:40;8.00;99.90
59146;DHT22;44928;53.074;6.646;2024-03-08T11:52:16;8.00;99.90
59146;DHT22;44928;53.074;6.646;2024-03-08T11:54:54;8.10;99.90
59146;DHT22;44928;53.074;6.646;2024-03-08T11:57:22;8.10;99.90
59146;DHT22;44928;53.074;6.646;2024-03-08T11:59:53;8.20;99.90
59146;DHT22;44928;53.074;6.646;2024-03-08T12:02:19;8.30;99.90
59146;DHT22;44928;53.074;6.646;2024-03-08T12:04:45;8.30;99.90
59146;DHT22;44928;53.074;6.646;2024-03-08T12:07:12;8.60;99.90
59146;DHT22;44928;53.074;6.646;2024-03-08T12:09:38;8.70;99.90
59146;DHT22;44928;53.074;6.646;2024-03-08T12:12:06;8.70;99.90
59146;DHT22;44928;53.074;6.646;2024-03-08T12:14:33;8.70;99.90
59146;DHT22;44928;53.074;6.646;2024-03-08T12:16:59;8.80;99.90
59146;DHT22;44928;53.074;6.646;2024-03-08T12:19:28;8.90;99.90
59146;DHT22;44928;53.074;6.646;2024-03-08T12:21:54;9.00;99.90
59146;DHT22;44928;53.074;6.646;2024-03-08T12:24:20;9.10;99.90
59146;DHT22;44928;53.074;6.646;2024-03-08T12:26:47;9.10;99.90
59146;DHT22;44928;53.074;6.646;2024-03-08T12:29:21;9.30;99.90
59146;DHT22;44928;53.074;6.646;2024-03-08T12:31:52;9.40;99.90
59146;DHT22;44928;53.074;6.646;2024-03-08T12:34:18;9.50;99.90
59146;DHT22;44928;53.074;6.646;2024-03-08T12:36:48;9.70;95.30
59146;DHT22;44928;53.074;6.646;2024-03-08T12:39:16;10.10;99.90
59146;DHT22;44928;53.074;6.646;2024-03-08T12:41:44;10.40;99.60
59146;DHT22;44928;53.074;6.646;2024-03-08T12:44:09;10.50;96.40
59146;DHT22;44928;53.074;6.646;2024-03-08T12:46:39;10.80;93.10
59146;DHT22;44928;53.074;6.646;2024-03-08T12:49:09;11.00;93.40
59146;DHT22;44928;53.074;6.646;2024-03-08T12:51:35;11.50;95.40
59146;DHT22;44928;53.074;6.646;2024-03-08T12:54:02;11.80;96.30
59146;DHT22;44928;53.074;6.646;2024-03-08T12:56:31;12.00;87.60
59146;DHT22;44928;53.074;6.646;2024-03-08T12:58:59;12.20;83.70
59146;DHT22;44928;53.074;6.646;2024-03-08T13:01:26;12.60;83.70
59146;DHT22;44928;53.074;6.646;2024-03-08T13:03:58;12.90;80.80
59146;DHT22;44928;53.074;6.646;2024-03-08T13:06:24;13.10;71.30
59146;DHT22;44928;53.074;6.646;2024-03-08T13:08:51;12.90;67.20
59146;DHT22;44928;53.074;6.646;2024-03-08T13:11:18;13.10;69.00
59146;DHT22;44928;53.074;6.646;2024-03-08T13:13:46;13.20;67.10
59146;DHT22;44928;53.074;6.646;2024-03-08T13:16:12;13.10;67.50
59146;DHT22;44928;53.074;6.646;2024-03-08T13:18:41;13.10;66.90
59146;DHT22;44928;53.074;6.646;2024-03-08T13:21:10;13.00;66.50
59146;DHT22;44928;53.074;6.646;2024-03-08T13:23:41;12.90;66.50
59146;DHT22;44928;53.074;6.646;2024-03-08T13:26:11;13.10;67.10
59146;DHT22;44928;53.074;6.646;2024-03-08T13:28:47;13.40;68.20
59146;DHT22;44928;53.074;6.646;2024-03-08T13:31:22;13.60;66.90
59146;DHT22;44928;53.074;6.646;2024-03-08T13:33:48;13.60;66.90
59146;DHT22;44928;53.074;6.646;2024-03-08T13:36:14;13.60;66.40
59146;DHT22;44928;53.074;6.646;2024-03-08T13:38:44;13.40;64.80
59146;DHT22;44928;53.074;6.646;2024-03-08T13:41:11;13.50;64.80
59146;DHT22;44928;53.074;6.646;2024-03-08T13:43:43;13.50;64.40
59146;DHT22;44928;53.074;6.646;2024-03-08T13:46:10;13.50;64.60
59146;DHT22;44928;53.074;6.646;2024-03-08T13:48:36;13.10;63.70
59146;DHT22;44928;53.074;6.646;2024-03-08T13:51:07;13.10;63.70
59146;DHT22;44928;53.074;6.646;2024-03-08T13:53:33;12.90;64.10
59146;DHT22;44928;53.074;6.646;2024-03-08T13:56:03;12.50;63.80
59146;DHT22;44928;53.074;6.646;2024-03-08T13:58:29;12.40;64.90
59146;DHT22;44928;53.074;6.646;2024-03-08T14:00:54;12.70;65.20
59146;DHT22;44928;53.074;6.646;2024-03-08T14:03:21;12.90;64.50
59146;DHT22;44928;53.074;6.646;2024-03-08T14:05:47;13.20;63.40
59146;DHT22;44928;53.074;6.646;2024-03-08T14:08:13;13.20;62.20
59146;DHT22;44928;53.074;6.646;2024-03-08T14:10:39;13.30;62.60
59146;DHT22;44928;53.074;6.646;2024-03-08T14:13:05;13.30;60.80
59146;DHT22;44928;53.074;6.646;2024-03-08T14:15:32;13.80;62.30
59146;DHT22;44928;53.074;6.646;2024-03-08T14:17:59;14.20;60.60
59146;DHT22;44928;53.074;6.646;2024-03-08T14:20:27;14.50;60.60
59146;DHT22;44928;53.074;6.646;2024-03-08T14:22:55;14.60;60.70
59146;DHT22;44928;53.074;6.646;2024-03-08T14:25:24;15.10;60.90
59146;DHT22;44928;53.074;6.646;2024-03-08T14:27:51;15.80;60.90
59146;DHT22;44928;53.074;6.646;2024-03-08T14:30:24;16.20;59.30
59146;DHT22;44928;53.074;6.646;2024-03-08T14:33:04;16.60;57.80
59146;DHT22;44928;53.074;6.646;2024-03-08T14:35:40;17.20;58.00
59146;DHT22;44928;53.074;6.646;2024-03-08T14:38:06;17.40;56.60
59146;DHT22;44928;53.074;6.646;2024-03-08T14:40:37;17.20;56.00
59146;DHT22;44928;53.074;6.646;2024-03-08T14:43:03;17.20;55.70
59146;DHT22;44928;53.074;6.646;2024-03-08T14:45:30;17.30;55.90
59146;DHT22;44928;53.074;6.646;2024-03-08T14:47:56;17.50;55.70
59146;DHT22;44928;53.074;6.646;2024-03-08T14:50:24;17.00;54.90
59146;DHT22;44928;53.074;6.646;2024-03-08T14:52:51;17.00;54.40
59146;DHT22;44928;53.074;6.646;2024-03-08T14:55:18;16.90;55.00
59146;DHT22;44928;53.074;6.646;2024-03-08T14:57:50;17.00;55.30
59146;DHT22;44928;53.074;6.646;2024-03-08T15:00:20;16.80;54.70
59146;DHT22;44928;53.074;6.646;2024-03-08T15:02:55;16.70;55.00
59146;DHT22;44928;53.074;6.646;2024-03-08T15:05:22;16.30;54.80
59146;DHT22;44928;53.074;6.646;2024-03-08T15:07:55;16.00;55.20
59146;DHT22;44928;53.074;6.646;2024-03-08T15:10:21;16.00;56.10
59146;DHT22;44928;53.074;6.646;2024-03-08T15:12:51;15.40;55.80
59146;DHT22;44928;53.074;6.646;2024-03-08T15:15:21;14.70;56.50
59146;DHT22;44928;53.074;6.646;2024-03-08T15:17:50;14.10;57.60
59146;DHT22;44928;53.074;6.646;2024-03-08T15:20:17;13.80;58.40
59146;DHT22;44928;53.074;6.646;2024-03-08T15:22:50;13.60;58.50
59146;DHT22;44928;53.074;6.646;2024-03-08T15:25:16;13.80;59.90
59146;DHT22;44928;53.074;6.646;2024-03-08T15:27:55;13.60;59.20
59146;DHT22;44928;53.074;6.646;2024-03-08T15:30:22;13.50;59.50
59146;DHT22;44928;53.074;6.646;2024-03-08T15:32:52;13.40;59.30
59146;DHT22;44928;53.074;6.646;2024-03-08T15:35:26;13.20;59.40
59146;DHT22;44928;53.074;6.646;2024-03-08T15:37:55;13.20;59.30
59146;DHT22;44928;53.074;6.646;2024-03-08T15:40:23;13.30;59.20
59146;DHT22;44928;53.074;6.646;2024-03-08T15:42:54;13.40;59.40
59146;DHT22;44928;53.074;6.646;2024-03-08T15:45:21;13.40;59.30
59146;DHT22;44928;53.074;6.646;2024-03-08T15:47:49;13.20;59.00
59146;DHT22;44928;53.074;6.646;2024-03-08T15:50:15;13.40;59.70
59146;DHT22;44928;53.074;6.646;2024-03-08T15:52:45;13.50;59.60
59146;DHT22;44928;53.074;6.646;2024-03-08T15:55:21;13.70;59.70
59146;DHT22;44928;53.074;6.646;2024-03-08T15:57:53;14.00;59.70